Time;durP1;ratioP1;P1;durP2;ratioP2;P2;SDS_P1;SDS_P2;PMS_P1;PMS_P2;Temp;Humidity;BMP_temperature;BMP_pressure;BME280_temperature;BME280_humidity;BME280_pressure;Samples;Min_cycle;Max_cycle;Signal;HPM_P1;HPM_P2
2021/11/27 00:02:24;;;;;;;1.87;1.47;;;;;;;12.52;64.09;93562.94;5075727;28;20806;-80
2021/11/27 00:04:51;;;;;;;1.80;1.70;;;;;;;12.60;64.00;93565.53;5075752;28;20448;-79
2021/11/27 00:07:18;;;;;;;3.67;2.67;;;;;;;12.65;65.17;93577.16;5075580;28;20803;-80
2021/11/27 00:09:46;;;;;;;3.13;2.93;;;;;;;12.56;65.80;93564.22;5075551;28;20440;-80
2021/11/27 00:12:13;;;;;;;2.73;2.53;;;;;;;12.38;64.97;93552.16;5075322;28;20441;-80
2021/11/27 00:14:40;;;;;;;3.00;2.80;;;;;;;12.38;65.30;93567.13;5075343;28;20960;-80
2021/11/27 00:17:07;;;;;;;4.93;3.40;;;;;;;12.40;66.28;93559.88;5040023;28;20580;-80
2021/11/27 00:19:34;;;;;;;2.90;2.70;;;;;;;12.37;66.49;93542.63;5075491;28;20450;-80
2021/11/27 00:22:01;;;;;;;2.60;2.40;;;;;;;12.35;66.65;93549.88;5075038;28;20453;-80
2021/11/27 00:24:28;;;;;;;3.80;3.30;;;;;;;12.31;67.04;93555.66;5075238;28;20459;-80
2021/11/27 00:26:56;;;;;;;4.90;3.87;;;;;;;12.28;67.65;93562.09;5075054;28;20452;-80
2021/11/27 00:29:23;;;;;;;5.40;4.27;;;;;;;12.28;67.91;93562.09;5075276;28;20790;-79
2021/11/27 00:31:51;;;;;;;2.97;2.67;;;;;;;12.22;67.97;93575.13;5075248;28;20940;-80
2021/11/27 00:34:18;;;;;;;3.03;2.73;;;;;;;12.14;68.22;93569.88;5075197;28;20500;-80
2021/11/27 00:36:45;;;;;;;2.47;2.27;;;;;;;12.05;68.01;93593.59;5074921;28;20476;-80
2021/11/27 00:39:12;;;;;;;3.93;2.50;;;;;;;12.01;68.60;93583.59;5075142;28;20449;-80
2021/11/27 00:41:40;;;;;;;2.20;2.03;;;;;;;11.97;68.61;93590.19;5075084;28;20476;-80
2021/11/27 00:44:08;;;;;;;2.70;2.20;;;;;;;11.87;66.10;93579.88;5074897;28;20451;-80
2021/11/27 00:46:35;;;;;;;2.97;2.67;;;;;;;11.96;65.68;93578.03;5074872;28;20442;-80
2021/11/27 00:49:02;;;;;;;2.57;2.37;;;;;;;12.16;65.76;93568.75;5074624;28;20445;-80
2021/11/27 00:51:29;;;;;;;3.40;2.10;;;;;;;12.19;66.14;93571.03;5074854;28;20444;-80
2021/11/27 00:53:59;;;;;;;1.80;1.70;;;;;;;12.18;66.30;93564.13;5074787;28;20796;-80
2021/11/27 00:56:27;;;;;;;2.43;2.23;;;;;;;11.93;66.76;93568.69;5074835;28;20442;-80
2021/11/27 00:58:54;;;;;;;1.97;1.77;;;;;;;12.04;66.45;93560.41;5074612;28;20478;-80
2021/11/27 01:01:26;;;;;;;1.60;1.50;;;;;;;12.18;66.31;93572.03;5074597;28;20817;-80
2021/11/27 01:03:54;;;;;;;1.50;1.40;;;;;;;12.31;65.14;93567.00;5074870;28;20455;-80
2021/11/27 01:06:24;;;;;;;1.60;1.50;;;;;;;12.40;65.36;93573.84;5039667;28;20440;-80
2021/11/27 01:08:54;;;;;;;1.60;1.50;;;;;;;12.47;64.89;93571.38;5074534;28;20435;-80
2021/11/27 01:11:25;;;;;;;1.50;1.40;;;;;;;12.51;63.70;93587.63;5074485;28;20443;-80
2021/11/27 01:13:55;;;;;;;1.53;1.43;;;;;;;12.55;64.03;93586.28;5039120;28;20451;-80
2021/11/27 01:16:27;;;;;;;1.40;1.30;;;;;;;12.65;64.50;93579.78;5074489;28;20440;-79
2021/11/27 01:18:54;;;;;;;1.43;1.33;;;;;;;12.64;65.87;93587.84;5074120;28;20486;-80
2021/11/27 01:21:24;;;;;;;1.37;1.27;;;;;;;12.66;65.58;93599.84;5074410;28;20459;-80
2021/11/27 01:23:52;;;;;;;1.33;1.23;;;;;;;12.70;66.16;93587.16;5074256;28;20534;-80
2021/11/27 01:26:19;;;;;;;1.40;1.30;;;;;;;12.68;65.82;93574.16;5074550;28;20462;-80
2021/11/27 01:28:46;;;;;;;1.40;1.30;;;;;;;12.69;65.37;93570.53;5074188;28;20448;-80
2021/11/27 01:31:13;;;;;;;3.40;3.10;;;;;;;12.76;65.22;93557.53;5074250;28;20457;-80
2021/11/27 01:33:41;;;;;;;1.83;1.73;;;;;;;12.66;65.46;93562.19;5074357;28;20452;-80
2021/11/27 01:36:09;;;;;;;2.90;1.90;;;;;;;12.66;66.33;93557.75;5073616;28;20451;-80
2021/11/27 01:38:37;;;;;;;2.10;1.90;;;;;;;12.59;65.48;93538.38;5074156;28;20488;-80
2021/11/27 01:41:05;;;;;;;3.63;2.30;;;;;;;12.60;65.44;93541.84;5054711;28;20561;-80
2021/11/27 01:43:32;;;;;;;1.73;1.63;;;;;;;12.63;65.46;93538.84;5039062;28;20443;-80
2021/11/27 01:45:59;;;;;;;2.10;1.90;;;;;;;12.48;65.81;93541.44;5074262;28;20449;-80
2021/11/27 01:48:26;;;;;;;1.90;1.80;;;;;;;12.52;66.51;93541.91;5074251;28;20461;-80
2021/11/27 01:50:58;;;;;;;1.80;1.70;;;;;;;12.50;66.24;93539.44;5038833;28;20447;-80
2021/11/27 01:53:26;;;;;;;1.80;1.70;;;;;;;12.48;66.14;93538.00;5073829;28;20440;-80
2021/11/27 01:55:56;;;;;;;1.93;1.83;;;;;;;12.50;65.65;93544.72;5074154;28;20441;-80
2021/11/27 01:58:23;;;;;;;1.77;1.67;;;;;;;12.33;66.92;93538.72;5073116;28;20490;-80
2021/11/27 02:00:53;;;;;;;2.20;1.60;;;;;;;12.16;67.59;93555.59;5073490;28;20822;-79
2021/11/27 02:03:21;;;;;;;2.40;2.00;;;;;;;12.25;67.34;93544.03;5073377;28;20444;-80
2021/11/27 02:05:50;;;;;;;1.60;1.50;;;;;;;12.23;67.70;93553.91;5073758;28;20443;-80
2021/11/27 02:08:19;;;;;;;1.60;1.50;;;;;;;12.24;67.57;93510.03;5073805;28;20529;-80
2021/11/27 02:10:46;;;;;;;2.17;1.80;;;;;;;12.16;67.40;93502.19;5074462;28;20445;-80
2021/11/27 02:13:14;;;;;;;2.00;1.40;;;;;;;12.18;67.83;93522.06;5073556;28;20946;-79
2021/11/27 02:15:41;;;;;;;1.80;1.70;;;;;;;12.26;68.08;93526.44;5073483;28;20447;-79
2021/11/27 02:18:08;;;;;;;1.77;1.67;;;;;;;12.09;67.70;93509.94;5073640;28;20476;-80
2021/11/27 02:20:38;;;;;;;2.43;1.87;;;;;;;12.08;68.29;93516.19;5073005;28;20453;-79
2021/11/27 02:23:06;;;;;;;1.43;1.33;;;;;;;12.24;67.66;93544.22;5073178;28;20429;-79
2021/11/27 02:25:33;;;;;;;1.83;1.63;;;;;;;12.33;67.64;93522.94;5054254;28;20437;-80
2021/11/27 02:28:01;;;;;;;2.07;1.80;;;;;;;12.32;67.68;93515.22;5073318;28;20450;-80
2021/11/27 02:30:29;;;;;;;2.37;2.17;;;;;;;12.38;67.83;93554.78;5072678;28;20480;-79
2021/11/27 02:32:56;;;;;;;2.83;2.60;;;;;;;12.23;67.53;93532.06;5072802;28;20817;-80
2021/11/27 02:35:23;;;;;;;2.97;2.30;;;;;;;12.29;68.52;93561.09;5072684;28;20433;-80
2021/11/27 02:37:52;;;;;;;2.20;2.00;;;;;;;12.28;68.26;93541.06;5072900;28;20483;-80
2021/11/27 02:40:19;;;;;;;9.93;6.20;;;;;;;12.30;67.48;93527.72;5073000;28;20445;-80
2021/11/27 02:42:46;;;;;;;7.20;5.60;;;;;;;12.36;67.44;93527.84;5072533;28;20443;-79
2021/11/27 02:45:13;;;;;;;4.27;3.20;;;;;;;12.34;67.34;93534.28;5072640;28;20454;-80
2021/11/27 02:47:41;;;;;;;2.40;2.20;;;;;;;12.38;67.27;93533.75;5072318;28;20449;-80
2021/11/27 02:50:09;;;;;;;1.87;1.77;;;;;;;12.38;66.59;93523.22;5072496;28;20450;-80
2021/11/27 02:52:36;;;;;;;2.33;2.00;;;;;;;12.17;67.18;93506.47;5072507;28;20451;-80
2021/11/27 02:55:06;;;;;;;1.83;1.50;;;;;;;12.19;67.04;93515.81;5072470;28;20794;-80
2021/11/27 02:57:34;;;;;;;1.98;1.65;;;;;;;12.16;68.21;93521.41;5072462;28;20458;-80
2021/11/27 03:00:02;;;;;;;3.40;1.80;;;;;;;12.29;67.38;93515.56;5072438;28;20203;-80
2021/11/27 03:02:29;;;;;;;1.60;1.50;;;;;;;12.27;67.86;93465.78;5072421;28;20461;-80
2021/11/27 03:04:56;;;;;;;3.37;1.57;;;;;;;12.24;67.64;93484.53;5037254;28;20455;-80
2021/11/27 03:07:23;;;;;;;5.10;3.87;;;;;;;12.27;66.49;93494.72;5072312;28;20553;-80
2021/11/27 03:09:51;;;;;;;4.77;3.13;;;;;;;12.31;67.45;93480.22;5071475;28;20948;-80
2021/11/27 03:12:19;;;;;;;2.00;1.60;;;;;;;12.24;67.53;93481.91;5072393;28;20949;-79
2021/11/27 03:14:46;;;;;;;1.70;1.60;;;;;;;12.16;67.14;93494.31;5072736;28;20440;-80
2021/11/27 03:17:14;;;;;;;1.60;1.50;;;;;;;12.27;67.14;93497.34;5072404;28;20437;-79
2021/11/27 03:19:45;;;;;;;3.73;3.20;;;;;;;12.40;67.06;93508.09;5072062;28;20860;-80
2021/11/27 03:22:15;;;;;;;4.80;4.00;;;;;;;12.48;65.71;93504.59;5072043;28;20437;-80
2021/11/27 03:24:43;;;;;;;4.80;4.17;;;;;;;12.52;65.98;93502.44;5072249;28;20447;-80
2021/11/27 03:27:10;;;;;;;2.10;1.90;;;;;;;12.52;65.54;93518.22;5072006;28;20449;-80
2021/11/27 03:29:39;;;;;;;2.37;1.80;;;;;;;12.58;65.89;93525.41;5036812;28;20459;-80
2021/11/27 03:32:08;;;;;;;3.00;2.23;;;;;;;12.67;65.65;93535.69;5072270;28;20444;-80
2021/11/27 03:34:35;;;;;;;1.80;1.70;;;;;;;12.75;65.72;93542.72;5072042;28;20443;-80
2021/11/27 03:37:02;;;;;;;2.50;2.30;;;;;;;12.78;66.14;93542.38;5071816;28;20440;-80
2021/11/27 03:39:29;;;;;;;4.50;4.10;;;;;;;12.66;65.73;93525.34;5072150;28;20487;-80
2021/11/27 03:41:56;;;;;;;8.77;5.30;;;;;;;12.67;66.14;93534.88;5072142;28;20465;-80
2021/11/27 03:44:23;;;;;;;8.90;5.53;;;;;;;12.72;66.09;93540.41;5071745;28;20920;-80
2021/11/27 03:46:52;;;;;;;24.33;14.90;;;;;;;12.74;66.45;93533.19;5072178;28;20464;-80
2021/11/27 03:49:23;;;;;;;14.90;8.80;;;;;;;12.69;66.28;93543.41;5072088;28;20458;-80
2021/11/27 03:51:51;;;;;;;8.13;4.70;;;;;;;12.58;65.61;93546.47;5072182;28;20446;-80
2021/11/27 03:54:18;;;;;;;6.57;5.20;;;;;;;12.51;65.97;93556.88;5072063;28;20537;-80
2021/11/27 03:56:45;;;;;;;7.23;5.77;;;;;;;12.45;66.42;93548.88;5072112;28;20439;-79
2021/11/27 03:59:12;;;;;;;2.63;2.30;;;;;;;12.44;65.54;93565.63;5071504;28;20480;-79
2021/11/27 04:01:39;;;;;;;11.20;7.83;;;;;;;12.47;66.17;93578.44;5052836;28;20939;-80
2021/11/27 04:04:08;;;;;;;4.50;3.47;;;;;;;12.44;66.46;93568.28;5071622;28;20450;-80
2021/11/27 04:06:36;;;;;;;3.20;2.80;;;;;;;12.50;66.75;93575.47;5071864;28;20451;-79
2021/11/27 04:09:06;;;;;;;2.97;2.47;;;;;;;12.49;65.71;93584.34;5071565;28;20458;-79
2021/11/27 04:11:34;;;;;;;8.50;4.30;;;;;;;12.58;66.07;93580.66;5071819;28;20436;-80
2021/11/27 04:14:01;;;;;;;7.87;3.60;;;;;;;12.60;65.48;93563.72;5071900;28;20444;-79
2021/11/27 04:16:31;;;;;;;7.10;5.03;;;;;;;12.61;66.05;93580.31;5071405;28;20947;-83
2021/11/27 04:18:58;;;;;;;2.70;2.50;;;;;;;12.65;65.74;93592.94;5070756;28;20453;-78
2021/11/27 04:21:27;;;;;;;16.07;6.00;;;;;;;12.70;65.15;93592.41;5039050;28;20664;-80
2021/11/27 04:23:54;;;;;;;11.70;7.53;;;;;;;12.61;65.67;93582.94;5076412;28;20446;-80
2021/11/27 04:26:22;;;;;;;2.33;1.73;;;;;;;12.48;65.88;93582.72;5041393;28;20447;-80
2021/11/27 04:28:50;;;;;;;1.70;1.60;;;;;;;12.43;65.98;93564.78;5076645;28;20459;-79
2021/11/27 04:31:18;;;;;;;3.20;1.63;;;;;;;12.39;66.33;93574.03;5057376;28;20432;-80
2021/11/27 04:33:45;;;;;;;2.77;1.70;;;;;;;12.42;65.88;93578.94;5076156;28;20450;-79
2021/11/27 04:36:12;;;;;;;6.30;2.63;;;;;;;12.39;66.60;93566.94;5074909;28;20449;-79
2021/11/27 04:38:41;;;;;;;2.10;1.80;;;;;;;12.42;66.71;93552.63;5039582;28;20577;-80
2021/11/27 04:41:08;;;;;;;6.50;1.70;;;;;;;12.44;66.19;93555.13;5074760;28;20484;-80
2021/11/27 04:43:35;;;;;;;2.30;2.10;;;;;;;12.41;66.14;93561.53;5074931;28;20927;-80
2021/11/27 04:46:02;;;;;;;1.77;1.53;;;;;;;12.44;66.63;93576.97;5074843;28;20463;-80
2021/11/27 04:48:29;;;;;;;2.37;1.80;;;;;;;12.50;66.53;93586.00;5074897;28;20449;-80
2021/11/27 04:50:56;;;;;;;4.80;2.27;;;;;;;12.49;66.42;93576.47;5039355;28;20440;-80
2021/11/27 04:53:23;;;;;;;2.00;1.83;;;;;;;12.43;66.33;93579.75;5074958;28;20437;-80
2021/11/27 04:55:52;;;;;;;4.30;1.60;;;;;;;12.39;66.80;93564.31;5074867;28;20940;-80
2021/11/27 04:58:19;;;;;;;1.80;1.70;;;;;;;12.39;66.86;93559.06;5074275;28;21007;-80
2021/11/27 05:00:49;;;;;;;1.83;1.67;;;;;;;12.39;66.88;93571.41;5074419;28;20447;-80
2021/11/27 05:03:15;;;;;;;7.70;1.83;;;;;;;12.40;66.71;93578.28;5074552;28;20803;-80
2021/11/27 05:05:42;;;;;;;1.67;1.57;;;;;;;12.39;66.99;93566.13;5074586;28;20438;-80
2021/11/27 05:08:09;;;;;;;5.27;2.90;;;;;;;12.37;67.04;93558.41;5074140;28;20477;-81
2021/11/27 05:10:37;;;;;;;3.67;1.60;;;;;;;12.40;66.70;93576.47;5075707;28;20503;-80
2021/11/27 05:13:05;;;;;;;2.93;1.60;;;;;;;12.42;66.48;93592.09;5040306;28;20443;-82
2021/11/27 05:15:32;;;;;;;1.93;1.77;;;;;;;12.46;66.35;93584.69;5040875;28;20457;-82
2021/11/27 05:17:59;;;;;;;2.70;1.50;;;;;;;12.45;66.27;93586.50;5075660;28;20518;-79
2021/11/27 05:20:26;;;;;;;3.37;1.80;;;;;;;12.47;65.81;93594.22;5076021;28;20950;-80
2021/11/27 05:22:53;;;;;;;2.50;1.60;;;;;;;12.49;66.11;93592.25;5075637;28;20437;-81
2021/11/27 05:35:33;;;;;;;2.67;1.70;;;;;;;12.48;66.58;93606.41;5075617;28;20400;-82
2021/11/27 05:38:01;;;;;;;3.03;1.73;;;;;;;12.48;66.43;93624.81;5075663;28;20449;-81
2021/11/27 05:40:28;;;;;;;1.90;1.80;;;;;;;12.46;67.36;93632.88;5075358;28;20419;-84
2021/11/27 05:42:55;;;;;;;13.40;1.70;;;;;;;12.55;66.29;93633.66;5075127;28;20634;-80
2021/11/27 05:45:27;;;;;;;1.90;1.47;;;;;;;12.60;66.70;93621.59;5075318;28;20444;-81
2021/11/27 05:47:58;;;;;;;2.40;1.47;;;;;;;12.55;66.99;93631.84;5075305;28;20435;-81
2021/11/27 05:50:26;;;;;;;4.97;1.83;;;;;;;12.53;67.02;93627.75;5040299;28;20431;-81
2021/11/27 05:52:54;;;;;;;2.17;1.50;;;;;;;12.56;66.69;93644.00;5074899;28;20423;-81
2021/11/27 05:55:22;;;;;;;3.33;1.53;;;;;;;12.58;68.12;93630.66;5075158;28;20860;-79
2021/11/27 05:57:50;;;;;;;2.67;2.00;;;;;;;12.59;67.33;93634.94;5075440;28;20768;-79
2021/11/27 06:00:17;;;;;;;1.80;1.70;;;;;;;12.64;69.54;93640.50;5074820;28;20471;-79
2021/11/27 06:02:45;;;;;;;10.27;1.67;;;;;;;12.64;67.31;93640.50;5075600;28;20453;-80
2021/11/27 06:05:12;;;;;;;2.23;1.60;;;;;;;12.65;67.51;93642.13;5074617;28;20451;-81
2021/11/27 06:07:39;;;;;;;1.70;1.60;;;;;;;12.66;67.75;93644.59;5056462;28;20953;-80
2021/11/27 06:10:08;;;;;;;2.90;1.70;;;;;;;12.74;67.52;93654.28;5074528;28;20436;-80
2021/11/27 06:12:36;;;;;;;1.93;1.53;;;;;;;12.75;67.82;93663.81;5075160;28;20440;-78
2021/11/27 06:15:04;;;;;;;8.70;2.00;;;;;;;12.84;67.46;93689.09;5040069;28;20449;-79
2021/11/27 06:17:31;;;;;;;7.07;2.30;;;;;;;12.88;66.79;93690.38;5074005;28;20447;-79
2021/11/27 06:19:58;;;;;;;8.53;2.73;;;;;;;12.98;66.97;93698.03;5074447;28;20465;-80
2021/11/27 06:22:25;;;;;;;3.30;3.00;;;;;;;13.05;66.02;93679.75;5074339;28;20786;-79
2021/11/27 06:24:52;;;;;;;3.47;2.50;;;;;;;13.08;66.40;93679.41;5074095;28;20429;-81
2021/11/27 06:27:20;;;;;;;2.30;1.90;;;;;;;13.12;65.97;93680.69;5074808;28;20934;-82
2021/11/27 06:29:48;;;;;;;6.70;3.30;;;;;;;13.21;65.94;93695.47;5074259;28;20433;-81
2021/11/27 06:32:16;;;;;;;8.80;3.70;;;;;;;13.31;65.35;93698.72;5074128;28;20425;-79
2021/11/27 06:34:43;;;;;;;4.87;4.20;;;;;;;13.41;64.58;93703.72;5039044;28;20454;-79
2021/11/27 06:37:10;;;;;;;2.87;2.67;;;;;;;13.53;64.28;93699.66;5074067;28;20437;-79
2021/11/27 06:39:37;;;;;;;2.43;2.10;;;;;;;13.58;63.82;93703.41;5073666;28;20985;-78
2021/11/27 06:42:06;;;;;;;4.77;2.07;;;;;;;13.64;64.45;93705.34;5073589;28;20484;-78
2021/11/27 06:44:34;;;;;;;6.43;2.40;;;;;;;13.67;64.09;93717.34;5073963;28;20431;-80
2021/11/27 06:47:01;;;;;;;2.83;2.37;;;;;;;13.70;62.87;93721.47;5073711;28;20435;-79
2021/11/27 06:49:28;;;;;;;2.00;1.80;;;;;;;13.82;62.74;93735.84;5073350;28;20809;-79
2021/11/27 06:51:56;;;;;;;2.97;1.90;;;;;;;13.84;61.50;93723.28;5074314;28;20440;-79
2021/11/27 06:54:22;;;;;;;3.50;2.10;;;;;;;13.80;61.72;93758.94;5073585;28;20950;-79
2021/11/27 06:56:49;;;;;;;5.50;1.97;;;;;;;13.71;61.77;93738.91;5074360;28;20425;-79
2021/11/27 06:59:16;;;;;;;1.63;1.53;;;;;;;13.73;62.81;93747.47;5073834;28;20464;-82
2021/11/27 07:01:45;;;;;;;2.40;2.30;;;;;;;13.86;63.33;93763.50;5073598;28;20459;-82
2021/11/27 07:04:12;;;;;;;4.30;1.87;;;;;;;13.93;63.07;93767.09;5073716;28;20502;-80
2021/11/27 07:06:40;;;;;;;3.30;1.90;;;;;;;13.93;63.55;93780.25;5074294;28;20919;-81
2021/11/27 07:09:07;;;;;;;2.10;1.90;;;;;;;14.01;61.87;93771.47;5073776;28;20439;-80
2021/11/27 07:11:34;;;;;;;2.83;2.53;;;;;;;14.05;60.77;93757.72;5073423;28;20421;-81
2021/11/27 07:27:29;;;;;;;4.60;2.27;;;;;;;14.06;60.40;93804.22;5072617;28;20424;-83
2021/11/27 07:29:56;;;;;;;3.22;2.10;;;;;;;14.08;60.61;93788.19;5072176;28;20442;-82
2021/11/27 07:32:24;;;;;;;8.50;2.00;;;;;;;14.22;60.73;93806.72;5072725;28;20197;-82
2021/11/27 07:34:51;;;;;;;3.00;2.13;;;;;;;14.25;59.63;93801.09;5072948;28;20443;-83
2021/11/27 07:37:18;;;;;;;3.20;2.07;;;;;;;14.21;59.06;93794.53;5073750;28;20431;-80
2021/11/27 07:43:15;;;;;;;6.00;2.40;;;;;;;14.05;59.60;93820.22;5073117;28;20408;-81
2021/11/27 07:45:42;;;;;;;4.90;2.80;;;;;;;14.17;59.19;93806.44;5073295;28;20444;-80
2021/11/27 07:48:09;;;;;;;14.43;9.57;;;;;;;14.11;59.52;93816.88;5073243;28;20445;-79
2021/11/27 07:50:36;;;;;;;11.10;4.07;;;;;;;14.12;59.93;93807.94;5073691;28;20445;-79
2021/11/27 07:53:04;;;;;;;5.13;4.40;;;;;;;14.06;59.56;93793.66;5072878;28;20842;-79
2021/11/27 07:55:31;;;;;;;5.63;4.00;;;;;;;13.98;59.72;93816.66;5074951;28;20437;-77
2021/11/27 07:57:57;;;;;;;4.20;2.33;;;;;;;13.95;59.32;93792.28;5076822;28;20816;-79
2021/11/27 08:00:26;;;;;;;4.53;2.27;;;;;;;14.05;59.46;93813.13;5038359;28;20487;-79
2021/11/27 08:02:53;;;;;;;2.03;1.60;;;;;;;14.07;59.17;93812.94;5055849;28;20448;-79
2021/11/27 08:05:20;;;;;;;2.53;2.33;;;;;;;14.01;59.17;93813.66;5097164;28;20448;-79
2021/11/27 08:07:47;;;;;;;2.53;2.33;;;;;;;13.94;59.69;93808.28;5080403;28;20430;-79
2021/11/27 08:10:17;;;;;;;3.37;2.17;;;;;;;13.93;59.58;93810.09;5076911;28;20443;-79
2021/11/27 08:12:44;;;;;;;3.93;3.27;;;;;;;14.14;59.40;93814.69;5075312;28;20434;-77
2021/11/27 08:15:11;;;;;;;8.83;8.20;;;;;;;14.11;59.16;93822.13;5077175;28;20437;-78
2021/11/27 08:17:40;;;;;;;2.50;1.53;;;;;;;14.13;59.17;93818.31;5076730;28;20448;-78
2021/11/27 08:20:09;;;;;;;3.90;2.37;;;;;;;14.23;58.69;93821.56;5076626;28;20470;-78
2021/11/27 08:22:36;;;;;;;5.80;2.53;;;;;;;14.17;58.78;93827.56;5076462;28;20514;-79
2021/11/27 08:25:04;;;;;;;2.40;2.20;;;;;;;14.25;59.19;93827.47;5075413;28;20455;-79
2021/11/27 08:27:31;;;;;;;5.67;2.20;;;;;;;14.25;58.64;93827.47;5076346;28;20444;-79
2021/11/27 08:29:58;;;;;;;6.53;5.90;;;;;;;14.20;58.88;93815.81;5076202;28;20432;-78
2021/11/27 08:32:25;;;;;;;2.33;2.23;;;;;;;14.14;58.85;93819.97;5068149;28;20429;-78
2021/11/27 08:34:53;;;;;;;2.83;2.07;;;;;;;14.15;58.59;93813.69;5076178;28;20533;-78
2021/11/27 08:44:17;;;;;;;2.00;1.90;;;;;;;13.98;60.16;93804.28;5065687;28;20966;-80
2021/11/27 08:46:44;;;;;;;2.30;1.93;;;;;;;13.94;59.53;93797.72;5076063;28;20450;-80
2021/11/27 08:49:11;;;;;;;1.80;1.60;;;;;;;13.83;60.16;93820.03;5067551;28;20803;-80
2021/11/27 08:51:41;;;;;;;3.00;1.70;;;;;;;13.89;59.93;93829.09;5037869;28;20476;-80
2021/11/27 09:04:13;;;;;;;2.23;1.40;;;;;;;13.82;59.66;93799.13;5056397;28;20433;-80
2021/11/27 09:06:41;;;;;;;3.17;2.23;;;;;;;13.93;59.88;93769.72;5061572;28;20779;-80
2021/11/27 09:09:08;;;;;;;2.90;1.87;;;;;;;13.99;59.70;93798.00;5096414;28;20431;-78
2021/11/27 09:11:36;;;;;;;11.57;4.37;;;;;;;14.00;59.31;93790.91;5095951;28;20438;-81
2021/11/27 09:14:06;;;;;;;6.90;4.20;;;;;;;14.04;58.94;93795.66;5095819;28;20462;-81
2021/11/27 09:16:33;;;;;;;2.50;2.30;;;;;;;14.03;58.61;93794.00;5082267;28;20454;-82
2021/11/27 09:19:01;;;;;;;1.50;1.40;;;;;;;14.08;57.86;93796.94;5036948;28;20449;-81
2021/11/27 09:21:27;;;;;;;6.10;4.30;;;;;;;14.05;58.41;93794.66;5056211;28;20425;-80
2021/11/27 09:30:39;;;;;;;2.70;2.50;;;;;;;14.14;57.92;93793.59;5055776;28;20479;-81
2021/11/27 09:33:06;;;;;;;4.50;2.10;;;;;;;14.17;58.21;93787.16;5074076;28;20450;-81
2021/11/27 09:35:33;;;;;;;3.10;2.13;;;;;;;14.19;58.29;93800.97;5075291;28;20437;-80
2021/11/27 09:38:00;;;;;;;2.97;2.77;;;;;;;14.18;58.97;93815.19;5075002;28;20436;-79
2021/11/27 09:40:27;;;;;;;12.43;7.57;;;;;;;14.23;58.62;93811.00;5075144;28;20481;-80
2021/11/27 09:42:55;;;;;;;5.90;3.77;;;;;;;14.29;58.68;93816.56;5074898;28;20434;-79
2021/11/27 09:45:25;;;;;;;3.60;2.00;;;;;;;14.39;58.15;93801.28;5074789;28;20951;-79
2021/11/27 10:14:46;;;;;;;5.90;3.17;;;;;;;14.93;55.48;93777.28;5094086;28;20483;-82
2021/11/27 10:17:14;;;;;;;5.47;5.00;;;;;;;14.98;55.03;93786.31;5094945;28;20440;-84
2021/11/27 10:19:56;;;;;;;3.20;2.60;;;;;;;15.07;54.88;93784.41;5094642;28;20484;-85
2021/11/27 10:22:27;;;;;;;4.70;2.80;;;;;;;15.14;53.81;93783.47;5097504;28;20904;-80
2021/11/27 10:24:55;;;;;;;9.10;8.00;;;;;;;15.06;55.57;93770.38;5078234;28;20450;-83
2021/11/27 10:27:25;;;;;;;2.93;2.67;;;;;;;15.25;55.22;93782.16;5074988;28;20432;-82
2021/11/27 10:30:04;;;;;;;2.47;2.30;;;;;;;15.25;53.95;93792.72;5074778;28;20449;-82
2021/11/27 10:32:37;;;;;;;4.90;4.43;;;;;;;15.38;54.65;93781.50;5074067;28;20449;-81
2021/11/27 10:35:07;;;;;;;6.00;5.37;;;;;;;15.42;53.92;93804.75;5071796;28;20531;-82
2021/11/27 10:37:39;;;;;;;9.67;4.30;;;;;;;15.54;53.92;93799.78;5037502;28;20457;-82
2021/11/27 10:40:08;;;;;;;3.80;2.57;;;;;;;15.68;53.26;93787.56;5053663;28;20467;-81
2021/11/27 10:42:37;;;;;;;4.40;2.40;;;;;;;15.68;52.82;93771.69;5053733;28;20429;-81
2021/11/27 10:45:14;;;;;;;3.87;2.67;;;;;;;15.65;52.80;93766.78;5071209;28;20480;-81
2021/11/27 10:47:43;;;;;;;2.97;2.77;;;;;;;15.65;52.47;93759.66;5066189;28;20442;-81
2021/11/27 10:50:13;;;;;;;5.20;2.40;;;;;;;15.59;53.15;93764.88;5062798;28;20432;-81
2021/11/27 10:52:40;;;;;;;2.67;2.27;;;;;;;15.68;53.41;93758.47;5072945;28;20450;-82
2021/11/27 10:55:19;;;;;;;5.17;4.63;;;;;;;15.59;53.14;93749.81;5072601;28;20453;-80
2021/11/27 10:57:47;;;;;;;4.73;3.17;;;;;;;15.63;52.74;93737.06;5072525;28;20452;-82
2021/11/27 11:00:28;;;;;;;8.13;3.20;;;;;;;15.45;52.60;93735.63;5072102;28;20479;-81
2021/11/27 11:02:55;;;;;;;4.40;4.00;;;;;;;15.41;53.27;93737.00;5072581;28;20458;-82
2021/11/27 11:05:31;;;;;;;2.40;2.20;;;;;;;15.51;53.05;93718.19;5055989;28;20451;-82
2021/11/27 11:08:00;;;;;;;4.70;2.53;;;;;;;15.59;52.93;93733.94;5072301;28;20487;-82
2021/11/27 11:10:30;;;;;;;7.03;2.40;;;;;;;15.65;52.01;93719.19;5072032;28;20451;-81
2021/11/27 11:12:59;;;;;;;2.30;2.10;;;;;;;15.76;51.63;93713.38;5072450;28;21048;-81
2021/11/27 11:15:30;;;;;;;1.87;1.73;;;;;;;15.92;51.58;93715.75;5072299;28;20461;-81
2021/11/27 11:18:18;;;;;;;2.97;2.43;;;;;;;16.08;50.51;93683.69;5072030;28;20519;-82
2021/11/27 11:20:48;;;;;;;2.47;2.20;;;;;;;16.25;49.34;93716.00;5071936;28;20534;-81
2021/11/27 11:23:19;;;;;;;3.83;1.90;;;;;;;16.31;49.76;93693.22;5072111;28;20433;-81
2021/11/27 11:26:02;;;;;;;2.60;2.03;;;;;;;16.47;49.63;93677.00;5072363;28;20480;-81
2021/11/27 11:28:32;;;;;;;5.40;2.60;;;;;;;16.57;49.62;93681.97;5071929;28;20523;-81
2021/11/27 11:31:05;;;;;;;6.60;2.70;;;;;;;16.71;49.33;93678.38;5071404;28;20848;-81
2021/11/27 11:33:34;;;;;;;3.30;1.50;;;;;;;16.83;48.95;93654.81;5071124;28;20463;-81
2021/11/27 11:36:03;;;;;;;1.70;1.60;;;;;;;16.95;48.82;93640.78;5071940;28;20476;-81
2021/11/27 11:38:30;;;;;;;3.50;1.70;;;;;;;17.00;49.19;93640.19;5071711;28;20448;-81
2021/11/27 11:40:58;;;;;;;2.07;1.57;;;;;;;17.06;49.33;93634.09;5071939;28;20488;-81
2021/11/27 11:43:25;;;;;;;2.20;2.00;;;;;;;16.99;49.46;93623.47;5071270;28;20449;-81
2021/11/27 11:45:52;;;;;;;3.77;1.80;;;;;;;16.81;49.71;93614.44;5071927;28;20656;-81
2021/11/27 11:48:23;;;;;;;3.30;1.70;;;;;;;16.79;50.27;93616.50;5044787;28;20440;-81
2021/11/27 11:50:59;;;;;;;7.43;1.63;;;;;;;16.74;50.24;93630.31;5081868;28;20442;-80
2021/11/27 11:53:34;;;;;;;8.53;2.30;;;;;;;16.73;50.14;93650.69;5074954;28;20872;-81
2021/11/27 11:56:04;;;;;;;2.10;1.90;;;;;;;16.64;49.18;93646.53;5053523;28;20427;-84
2021/11/27 11:58:33;;;;;;;3.55;1.90;;;;;;;16.67;49.14;93659.44;5033940;28;20442;-78
2021/11/27 12:01:04;;;;;;;3.60;1.77;;;;;;;16.62;50.11;93656.53;5079715;28;20347;-78
2021/11/27 12:03:37;;;;;;;2.03;1.83;;;;;;;16.64;50.75;93651.84;5093719;28;20443;-77
2021/11/27 12:06:06;;;;;;;9.97;1.70;;;;;;;16.58;50.02;93635.94;5093088;28;21147;-79
2021/11/27 12:08:58;;;;;;;1.70;1.50;;;;;;;16.47;49.64;93649.72;5093195;28;20427;-81
2021/11/27 12:12:05;;;;;;;3.03;2.00;;;;;;;16.51;49.70;93670.34;5076537;28;20940;-79
2021/11/27 12:15:00;;;;;;;3.43;2.10;;;;;;;16.55;50.26;93666.28;5072221;28;20468;-80
2021/11/27 12:17:28;;;;;;;4.40;1.50;;;;;;;16.51;50.19;93664.22;5046426;28;20536;-77
2021/11/27 12:20:00;;;;;;;5.17;1.70;;;;;;;16.47;50.98;93669.06;5026230;28;20521;-77
2021/11/27 12:22:43;;;;;;;3.53;2.23;;;;;;;16.34;50.42;93672.47;5023125;28;20456;-77
2021/11/27 12:25:26;;;;;;;3.37;2.30;;;;;;;16.29;50.42;93671.41;5024200;28;20584;-78
2021/11/27 12:28:25;;;;;;;1.60;1.50;;;;;;;16.29;51.27;93652.91;5046845;28;20524;-77
2021/11/27 12:31:06;;;;;;;3.30;2.20;;;;;;;16.27;51.32;93639.03;5030228;28;20956;-77
2021/11/27 12:33:58;;;;;;;2.70;2.10;;;;;;;16.24;50.40;93629.66;5010625;28;20455;-77
2021/11/27 12:36:44;;;;;;;6.70;3.30;;;;;;;16.21;50.63;93647.75;4933219;29;20881;-77
2021/11/27 12:39:17;;;;;;;4.90;1.73;;;;;;;16.21;49.79;93638.00;4957764;28;20449;-78
2021/11/27 12:41:46;;;;;;;1.60;1.50;;;;;;;16.25;50.71;93639.22;4955706;28;20485;-77
2021/11/27 12:44:19;;;;;;;3.97;1.90;;;;;;;16.25;50.33;93628.66;4955475;29;20474;-78
2021/11/27 12:46:50;;;;;;;3.87;2.10;;;;;;;16.24;50.89;93640.25;4963614;28;20944;-78
2021/11/27 12:49:54;;;;;;;3.60;2.00;;;;;;;16.22;51.04;93631.69;4949299;28;20539;-77
2021/11/27 12:52:37;;;;;;;2.83;2.30;;;;;;;16.21;50.87;93638.00;4946139;29;20453;-78
2021/11/27 12:55:36;;;;;;;2.30;1.83;;;;;;;16.20;51.57;93639.00;5002828;28;20457;-77
2021/11/27 12:58:33;;;;;;;10.23;2.13;;;;;;;16.23;50.27;93648.38;5030269;28;20457;-77
2021/11/27 13:01:02;;;;;;;1.90;1.80;;;;;;;16.34;49.88;93634.59;5023847;28;20486;-77
2021/11/27 13:03:31;;;;;;;2.47;2.10;;;;;;;16.42;49.32;93629.13;5020028;28;20797;-77